createdAt,value
2017-09-18T00:01:05.199Z,11.50
2017-09-18T00:03:31.501Z,11.40
2017-09-18T00:05:57.794Z,11.30
2017-09-18T00:08:24.089Z,11.20
2017-09-18T00:10:50.368Z,11.20
2017-09-18T00:13:17.415Z,11.10
2017-09-18T00:15:43.709Z,11.00
2017-09-18T00:18:10.002Z,11.00
2017-09-18T00:20:37.031Z,11.00
2017-09-18T00:23:04.106Z,11.00
2017-09-18T00:25:30.405Z,10.90
2017-09-18T00:27:56.716Z,11.00
2017-09-18T00:30:23.028Z,11.00
2017-09-18T00:32:49.348Z,11.10
2017-09-18T00:35:15.654Z,11.30
2017-09-18T00:37:41.963Z,11.40
2017-09-18T00:40:09.033Z,11.60
2017-09-18T00:42:35.339Z,11.60
2017-09-18T00:45:01.674Z,11.70
2017-09-18T00:47:27.990Z,11.60
2017-09-18T00:49:54.322Z,11.80
2017-09-18T00:52:20.647Z,11.80
2017-09-18T00:54:47.737Z,11.50
2017-09-18T00:57:14.058Z,11.50
2017-09-18T00:59:40.411Z,11.70
2017-09-18T01:02:06.703Z,11.80
2017-09-18T01:04:33.781Z,11.60
2017-09-18T01:07:00.109Z,11.50
2017-09-18T01:09:26.428Z,11.30
2017-09-18T01:11:53.116Z,11.10
2017-09-18T01:14:19.485Z,11.20
2017-09-18T01:16:45.796Z,11.30
2017-09-18T01:19:12.130Z,11.20
2017-09-18T01:21:39.197Z,11.10
2017-09-18T01:24:05.493Z,11.10
2017-09-18T01:26:32.767Z,11.00
2017-09-18T01:28:59.790Z,11.20
2017-09-18T01:31:26.113Z,11.10
2017-09-18T01:33:53.867Z,11.00
2017-09-18T01:36:20.175Z,11.00
2017-09-18T01:38:46.453Z,10.80
2017-09-18T01:41:12.742Z,10.80
2017-09-18T01:43:39.020Z,10.80
2017-09-18T01:46:05.319Z,10.80
2017-09-18T01:48:33.107Z,10.90
2017-09-18T01:50:59.410Z,10.90
2017-09-18T01:53:25.681Z,10.90
2017-09-18T01:55:52.713Z,11.00
2017-09-18T01:58:19.075Z,10.90
2017-09-18T02:00:45.363Z,10.90
2017-09-18T02:03:11.698Z,10.90
2017-09-18T02:05:38.775Z,10.70
2017-09-18T02:08:05.095Z,10.70
2017-09-18T02:10:31.406Z,10.70
2017-09-18T02:12:57.704Z,10.60
2017-09-18T02:15:23.993Z,10.60
2017-09-18T02:17:51.015Z,10.60
2017-09-18T02:20:20.826Z,10.70
2017-09-18T02:22:47.130Z,10.70
2017-09-18T02:25:13.448Z,10.80
2017-09-18T02:27:39.733Z,10.90
2017-09-18T02:30:06.753Z,11.00
2017-09-18T02:32:33.816Z,10.80
2017-09-18T02:35:00.086Z,10.70
2017-09-18T02:37:26.379Z,10.80
2017-09-18T02:39:52.675Z,10.90
2017-09-18T02:42:18.977Z,10.90
2017-09-18T02:44:45.333Z,10.90
2017-09-18T02:47:11.618Z,11.10
2017-09-18T02:49:37.908Z,11.10
2017-09-18T02:52:04.956Z,11.00
2017-09-18T02:54:31.262Z,10.90
2017-09-18T02:56:58.394Z,11.10
2017-09-18T02:59:24.687Z,11.20
2017-09-18T03:01:51.735Z,11.10
2017-09-18T03:04:18.780Z,11.30
2017-09-18T03:06:45.115Z,11.20
2017-09-18T03:09:12.169Z,11.00
2017-09-18T03:11:39.207Z,10.90
2017-09-18T03:14:06.263Z,10.70
2017-09-18T03:16:32.561Z,10.70
2017-09-18T03:19:00.320Z,11.00
2017-09-18T03:21:26.629Z,11.00
2017-09-18T03:23:52.914Z,10.70
2017-09-18T03:26:19.953Z,10.60
2017-09-18T03:28:46.976Z,11.00
2017-09-18T03:31:13.266Z,10.90
2017-09-18T03:33:39.555Z,11.00
2017-09-18T03:36:06.605Z,10.90
2017-09-18T03:38:33.651Z,11.00
2017-09-18T03:40:59.946Z,10.90
2017-09-18T03:43:26.261Z,11.00
2017-09-18T03:45:52.558Z,10.90
2017-09-18T03:48:19.813Z,10.70
2017-09-18T03:50:46.149Z,10.80
2017-09-18T03:53:12.426Z,10.90
2017-09-18T03:55:38.731Z,10.70
2017-09-18T03:58:05.023Z,10.80
2017-09-18T04:00:31.335Z,10.90
2017-09-18T04:02:58.391Z,11.10
2017-09-18T04:05:25.641Z,11.00
2017-09-18T04:07:52.661Z,10.70
2017-09-18T04:10:19.183Z,10.60
2017-09-18T04:12:45.479Z,10.60
2017-09-18T04:15:11.779Z,10.40
2017-09-18T04:17:38.823Z,10.40
2017-09-18T04:20:05.847Z,10.50
2017-09-18T04:22:32.141Z,10.40
2017-09-18T04:24:58.434Z,10.70
2017-09-18T04:27:24.722Z,10.60
2017-09-18T04:29:50.978Z,10.30
2017-09-18T04:32:17.287Z,10.30
2017-09-18T04:34:43.568Z,10.20
2017-09-18T04:37:09.855Z,10.10
2017-09-18T04:39:36.151Z,10.20
2017-09-18T04:42:02.451Z,10.20
2017-09-18T04:44:28.829Z,10.00
2017-09-18T04:46:55.101Z,9.80
2017-09-18T04:49:22.138Z,9.70
2017-09-18T04:51:49.156Z,9.90
2017-09-18T04:54:15.478Z,9.90
2017-09-18T04:56:41.765Z,10.00
2017-09-18T04:59:08.842Z,10.00
2017-09-18T05:01:35.189Z,10.00
2017-09-18T05:04:01.509Z,9.90
2017-09-18T05:06:27.793Z,9.80
2017-09-18T05:08:54.827Z,9.60
2017-09-18T05:11:21.132Z,9.60
2017-09-18T05:13:47.434Z,9.50
2017-09-18T05:16:13.770Z,9.40
2017-09-18T05:18:40.046Z,9.60
2017-09-18T05:21:07.106Z,9.30
2017-09-18T05:23:34.180Z,9.40
2017-09-18T05:26:00.479Z,9.30
2017-09-18T05:28:26.795Z,9.50
2017-09-18T05:30:53.095Z,9.60
2017-09-18T05:33:19.409Z,9.60
2017-09-18T05:35:45.744Z,10.00
2017-09-18T05:38:12.086Z,9.80
2017-09-18T05:40:38.385Z,9.80
2017-09-18T05:43:04.707Z,9.90
2017-09-18T05:45:31.021Z,9.80
2017-09-18T05:47:58.075Z,9.80
2017-09-18T05:50:25.110Z,9.70
2017-09-18T05:52:53.003Z,9.80
2017-09-18T05:55:19.346Z,9.80
2017-09-18T05:57:45.691Z,9.70
2017-09-18T06:00:12.027Z,9.70
2017-09-18T06:02:38.375Z,9.80
2017-09-18T06:05:04.685Z,9.80
2017-09-18T06:07:31.015Z,9.90
2017-09-18T06:09:57.332Z,9.90
2017-09-18T06:12:23.646Z,10.00
2017-09-18T06:14:49.961Z,10.20
2017-09-18T06:17:17.000Z,10.10
2017-09-18T06:19:44.053Z,9.80
2017-09-18T06:22:10.354Z,9.80
2017-09-18T06:24:36.667Z,10.10
2017-09-18T06:27:02.950Z,10.20
2017-09-18T06:29:29.413Z,10.00
2017-09-18T06:31:55.733Z,9.80
2017-09-18T06:34:22.189Z,9.90
2017-09-18T06:36:48.543Z,10.00
2017-09-18T06:39:14.855Z,10.00
2017-09-18T06:41:41.466Z,10.00
2017-09-18T06:44:08.706Z,10.10
2017-09-18T06:46:35.024Z,10.20
2017-09-18T06:49:01.376Z,10.20
2017-09-18T06:51:27.681Z,10.30
2017-09-18T06:53:53.986Z,10.50
2017-09-18T06:56:21.052Z,10.90
2017-09-18T06:58:47.375Z,10.90
2017-09-18T07:01:14.439Z,11.00
2017-09-18T07:03:40.756Z,10.90
2017-09-18T07:06:07.806Z,11.00
2017-09-18T07:08:34.845Z,11.10
2017-09-18T07:11:01.916Z,11.20
2017-09-18T07:13:28.231Z,11.10
2017-09-18T07:15:55.331Z,11.40
2017-09-18T07:18:21.629Z,11.40
2017-09-18T07:20:47.947Z,11.50
2017-09-18T07:23:14.276Z,11.50
2017-09-18T07:25:40.620Z,11.50
2017-09-18T07:28:06.948Z,11.40
2017-09-18T07:30:33.279Z,11.60
2017-09-18T07:32:59.608Z,11.60
2017-09-18T07:35:25.900Z,11.60
2017-09-18T07:37:52.195Z,11.60
2017-09-18T07:40:18.489Z,11.70
2017-09-18T07:42:45.530Z,11.80
2017-09-18T07:45:12.581Z,11.90
2017-09-18T07:47:39.599Z,12.10
2017-09-18T07:50:06.662Z,12.10
2017-09-18T07:52:34.501Z,12.10
2017-09-18T07:55:00.797Z,12.00
2017-09-18T07:57:27.100Z,12.00
2017-09-18T07:59:54.155Z,11.90
2017-09-18T08:02:20.498Z,11.90
2017-09-18T08:04:46.849Z,12.00
2017-09-18T08:07:13.152Z,12.00
2017-09-18T08:09:39.446Z,12.00
2017-09-18T08:12:05.721Z,12.10
2017-09-18T08:14:32.062Z,12.10
2017-09-18T08:16:58.346Z,12.10
2017-09-18T08:19:25.395Z,12.30
2017-09-18T08:21:52.462Z,12.30
2017-09-18T08:24:18.770Z,12.20
2017-09-18T08:26:45.847Z,12.20
2017-09-18T08:29:12.190Z,12.20
2017-09-18T08:31:38.519Z,12.30
2017-09-18T08:34:04.821Z,12.40
2017-09-18T08:36:31.168Z,12.40
2017-09-18T08:38:57.465Z,12.50
2017-09-18T08:41:25.549Z,12.40
2017-09-18T08:43:52.582Z,12.40
2017-09-18T08:46:19.626Z,12.70
2017-09-18T08:48:46.666Z,12.80
2017-09-18T08:51:13.011Z,12.80
2017-09-18T08:53:40.067Z,12.80
2017-09-18T08:56:07.163Z,12.80
2017-09-18T08:58:33.492Z,12.80
2017-09-18T09:00:59.793Z,13.00
2017-09-18T09:03:26.126Z,12.90
2017-09-18T09:05:52.443Z,13.00
2017-09-18T09:08:18.810Z,13.00
2017-09-18T09:10:45.160Z,13.00
2017-09-18T09:13:11.510Z,13.00
2017-09-18T09:15:38.553Z,13.20
2017-09-18T09:18:05.624Z,13.30
2017-09-18T09:20:32.644Z,13.30
2017-09-18T09:22:58.946Z,13.30
2017-09-18T09:25:25.247Z,13.40
2017-09-18T09:27:51.551Z,13.20
2017-09-18T09:30:18.627Z,13.40
2017-09-18T09:32:44.957Z,13.30
2017-09-18T09:35:11.258Z,13.40
2017-09-18T09:37:39.196Z,13.40
2017-09-18T09:40:05.534Z,13.40
2017-09-18T09:42:32.604Z,13.60
2017-09-18T09:44:59.664Z,13.70
2017-09-18T09:47:25.997Z,13.60
2017-09-18T09:49:52.404Z,13.70
2017-09-18T09:52:18.771Z,13.60
2017-09-18T09:54:45.107Z,13.60
2017-09-18T09:57:11.453Z,13.50
2017-09-18T09:59:37.774Z,13.60
2017-09-18T10:02:04.093Z,13.60
2017-09-18T10:04:30.417Z,13.60
2017-09-18T10:06:56.770Z,13.70
2017-09-18T10:09:23.139Z,13.80
2017-09-18T10:11:50.804Z,13.90
2017-09-18T10:14:25.690Z,13.90
2017-09-18T10:16:52.015Z,13.90
2017-09-18T10:19:18.314Z,14.00
2017-09-18T10:21:45.391Z,14.20
2017-09-18T10:24:11.712Z,14.10
2017-09-18T10:26:38.034Z,14.30
2017-09-18T10:29:04.338Z,14.30
2017-09-18T10:31:31.453Z,14.30
2017-09-18T10:33:57.762Z,14.30
2017-09-18T10:36:24.108Z,14.40
2017-09-18T10:38:50.439Z,14.40
2017-09-18T10:41:16.749Z,14.40
2017-09-18T10:43:43.078Z,14.50
2017-09-18T10:46:09.361Z,14.60
2017-09-18T10:48:36.435Z,14.70
2017-09-18T10:51:02.778Z,14.70
2017-09-18T10:53:29.092Z,14.70
2017-09-18T10:55:56.151Z,14.90
2017-09-18T10:58:22.445Z,14.90
2017-09-18T11:00:49.489Z,15.00
2017-09-18T11:03:15.819Z,15.00
2017-09-18T11:05:42.906Z,15.10
2017-09-18T11:08:09.224Z,15.00
2017-09-18T11:10:36.282Z,15.00
2017-09-18T11:13:02.606Z,15.00
2017-09-18T11:15:28.940Z,15.10
2017-09-18T11:17:55.265Z,15.20
2017-09-18T11:20:21.571Z,15.50
2017-09-18T11:22:48.625Z,15.30
2017-09-18T11:25:14.958Z,15.30
2017-09-18T11:27:41.347Z,15.50
2017-09-18T11:30:09.146Z,15.60
2017-09-18T11:32:35.455Z,15.60
2017-09-18T11:35:01.753Z,15.70
2017-09-18T11:37:28.089Z,15.70
2017-09-18T11:39:54.393Z,15.90
2017-09-18T11:42:20.707Z,16.10
2017-09-18T11:44:47.006Z,16.30
2017-09-18T11:47:14.098Z,16.40
2017-09-18T11:49:40.403Z,16.30
2017-09-18T11:52:07.433Z,16.40
2017-09-18T11:54:33.738Z,16.40
2017-09-18T11:57:00.058Z,16.50
2017-09-18T11:59:26.390Z,16.40
2017-09-18T12:01:52.676Z,16.20
2017-09-18T12:04:19.748Z,16.50
2017-09-18T12:06:46.038Z,16.50
2017-09-18T12:09:12.351Z,16.40
2017-09-18T12:11:38.671Z,16.40
2017-09-18T12:14:04.985Z,16.20
2017-09-18T12:16:31.293Z,16.00
2017-09-18T12:18:57.608Z,15.80
2017-09-18T12:21:24.672Z,15.90
2017-09-18T12:23:50.969Z,15.90
2017-09-18T12:26:18.533Z,15.90
2017-09-18T12:28:45.703Z,15.80
2017-09-18T12:31:12.763Z,16.00
2017-09-18T12:33:39.081Z,15.90
2017-09-18T12:36:05.429Z,16.10
2017-09-18T12:38:31.859Z,16.30
2017-09-18T12:40:58.174Z,16.40
2017-09-18T12:43:24.507Z,16.40
2017-09-18T12:45:50.850Z,16.40
2017-09-18T12:48:17.172Z,16.30
2017-09-18T12:50:43.677Z,16.10
2017-09-18T12:53:10.137Z,16.50
2017-09-18T12:55:36.445Z,16.90
2017-09-18T12:58:03.886Z,18.00
2017-09-18T13:00:30.285Z,17.90
2017-09-18T13:02:56.628Z,18.00
2017-09-18T13:05:22.954Z,18.00
2017-09-18T13:07:49.608Z,18.20
2017-09-18T13:10:15.921Z,18.00
2017-09-18T13:12:42.234Z,17.50
2017-09-18T13:15:08.549Z,17.50
2017-09-18T13:17:34.918Z,17.50
2017-09-18T13:20:02.731Z,18.10
2017-09-18T13:22:29.043Z,18.10
2017-09-18T13:24:56.870Z,17.90
2017-09-18T13:27:23.959Z,17.70
2017-09-18T13:29:51.067Z,18.10
2017-09-18T13:32:17.398Z,18.00
2017-09-18T13:34:43.764Z,18.20
2017-09-18T13:37:10.925Z,18.20
2017-09-18T13:39:37.986Z,18.60
2017-09-18T13:42:04.310Z,18.50
2017-09-18T13:44:30.630Z,19.20
2017-09-18T13:46:57.677Z,19.70
2017-09-18T13:49:24.758Z,19.40
2017-09-18T13:51:51.042Z,19.30
2017-09-18T13:54:18.840Z,18.70
2017-09-18T13:56:45.155Z,18.80
2017-09-18T13:59:11.451Z,18.40
2017-09-18T14:01:37.772Z,17.90
2017-09-18T14:04:04.117Z,17.80
2017-09-18T14:06:31.198Z,17.60
2017-09-18T14:08:58.254Z,17.60
2017-09-18T14:11:25.275Z,17.70
2017-09-18T14:13:52.334Z,18.30
2017-09-18T14:16:18.677Z,18.20
2017-09-18T14:18:45.717Z,19.90
2017-09-18T14:21:12.038Z,19.90
2017-09-18T14:23:38.393Z,21.10
2017-09-18T14:26:04.715Z,21.30
2017-09-18T14:28:31.029Z,21.60
2017-09-18T14:30:58.077Z,21.70
2017-09-18T14:33:25.150Z,22.50
2017-09-18T14:35:51.487Z,22.40
2017-09-18T14:38:17.844Z,23.10
2017-09-18T14:40:44.173Z,24.20
2017-09-18T14:43:10.527Z,24.00
2017-09-18T14:45:36.874Z,23.90
2017-09-18T14:48:03.233Z,24.80
2017-09-18T14:50:29.588Z,25.20
2017-09-18T14:52:55.918Z,25.20
2017-09-18T14:55:22.252Z,25.70
2017-09-18T14:57:48.597Z,26.30
2017-09-18T15:00:14.939Z,26.50
2017-09-18T15:02:41.242Z,24.60
2017-09-18T15:05:07.516Z,22.70
2017-09-18T15:07:34.626Z,21.40
2017-09-18T15:10:00.950Z,21.30
2017-09-18T15:12:27.248Z,20.70
2017-09-18T15:14:53.557Z,20.50
2017-09-18T15:17:20.605Z,23.10
2017-09-18T15:19:47.657Z,24.20
2017-09-18T15:22:13.954Z,24.10
2017-09-18T15:24:40.260Z,24.70
2017-09-18T15:27:06.535Z,25.60
2017-09-18T15:29:33.595Z,25.10
2017-09-18T15:32:00.626Z,24.30
2017-09-18T15:34:27.696Z,24.30
2017-09-18T15:36:54.010Z,24.30
2017-09-18T15:39:21.058Z,22.40
2017-09-18T15:41:48.103Z,22.20
2017-09-18T15:44:15.154Z,21.20
2017-09-18T15:46:42.211Z,21.40
2017-09-18T15:49:08.522Z,21.40
2017-09-18T15:51:34.845Z,22.20
2017-09-18T15:54:01.912Z,24.00
2017-09-18T15:56:28.252Z,23.90
2017-09-18T15:58:54.607Z,24.30
2017-09-18T16:01:20.952Z,24.00
2017-09-18T16:03:47.243Z,23.80
2017-09-18T16:06:14.022Z,23.60
2017-09-18T16:08:40.319Z,22.90
2017-09-18T16:11:06.642Z,22.30
2017-09-18T16:13:32.943Z,22.30
2017-09-18T16:15:59.225Z,23.10
2017-09-18T16:18:25.559Z,23.60
2017-09-18T16:20:51.886Z,23.80
2017-09-18T16:23:18.237Z,23.60
2017-09-18T16:25:44.620Z,23.30
2017-09-18T16:28:12.262Z,23.20
2017-09-18T16:30:39.334Z,23.40
2017-09-18T16:33:06.622Z,23.40
2017-09-18T16:35:32.992Z,23.20
2017-09-18T16:37:59.811Z,22.90
2017-09-18T16:40:26.903Z,22.10
2017-09-18T16:42:53.301Z,22.10
2017-09-18T16:45:19.877Z,21.90
2017-09-18T16:47:46.433Z,21.20
2017-09-18T16:50:12.770Z,21.20
2017-09-18T16:52:39.146Z,20.70
2017-09-18T16:55:06.194Z,20.70
2017-09-18T16:57:32.509Z,20.70
2017-09-18T16:59:58.827Z,20.90
2017-09-18T17:02:25.229Z,20.70
2017-09-18T17:04:51.605Z,20.00
2017-09-18T17:07:18.677Z,19.40
2017-09-18T17:09:45.903Z,19.30
2017-09-18T17:12:12.322Z,19.30
2017-09-18T17:14:41.313Z,18.40
2017-09-18T17:17:07.665Z,18.40
2017-09-18T17:19:34.818Z,18.50
2017-09-18T17:22:01.181Z,18.40
2017-09-18T17:24:27.582Z,18.30
2017-09-18T17:26:54.772Z,17.50
2017-09-18T17:29:21.071Z,17.50
2017-09-18T17:31:47.411Z,17.30
2017-09-18T17:34:14.444Z,17.10
2017-09-18T17:36:41.483Z,16.80
2017-09-18T17:39:07.771Z,16.70
2017-09-18T17:41:34.067Z,16.60
2017-09-18T17:44:01.087Z,16.50
2017-09-18T17:46:27.442Z,16.40
2017-09-18T17:48:54.474Z,16.20
2017-09-18T17:51:20.776Z,16.10
2017-09-18T17:53:47.106Z,16.00
2017-09-18T17:56:13.412Z,16.20
2017-09-18T17:58:39.698Z,16.60
2017-09-18T18:01:06.732Z,15.90
2017-09-18T18:03:33.789Z,15.40
2017-09-18T18:06:00.832Z,15.70
2017-09-18T18:08:27.100Z,15.60
2017-09-18T18:10:53.392Z,15.70
2017-09-18T18:13:20.422Z,15.70
2017-09-18T18:15:46.712Z,15.70
2017-09-18T18:18:13.009Z,15.90
2017-09-18T18:20:39.286Z,16.10
2017-09-18T18:23:05.562Z,15.90
2017-09-18T18:25:32.595Z,15.50
2017-09-18T18:27:58.881Z,15.40
2017-09-18T18:30:25.900Z,15.20
2017-09-18T18:32:52.929Z,15.10
2017-09-18T18:35:19.205Z,15.10
2017-09-18T18:37:45.510Z,15.00
2017-09-18T18:40:12.538Z,14.70
2017-09-18T18:42:39.580Z,14.80
2017-09-18T18:45:05.864Z,14.70
2017-09-18T18:47:32.162Z,14.50
2017-09-18T18:49:58.453Z,14.60
2017-09-18T18:52:26.232Z,15.10
2017-09-18T18:54:53.270Z,14.90
2017-09-18T18:57:19.639Z,14.80
2017-09-18T18:59:52.831Z,14.60
2017-09-18T19:02:19.194Z,14.60
2017-09-18T19:04:45.507Z,14.80
2017-09-18T19:07:11.803Z,14.60
2017-09-18T19:09:38.162Z,14.70
2017-09-18T19:12:04.519Z,14.50
2017-09-18T19:14:30.953Z,14.90
2017-09-18T19:16:57.335Z,15.00
2017-09-18T19:19:23.681Z,15.20
2017-09-18T19:21:50.103Z,14.90
2017-09-18T19:24:17.181Z,14.60
2017-09-18T19:26:43.491Z,14.60
2017-09-18T19:29:10.730Z,14.30
2017-09-18T19:31:37.930Z,14.10
2017-09-18T19:34:04.407Z,14.00
2017-09-18T19:36:31.966Z,13.60
2017-09-18T19:38:58.465Z,13.60
2017-09-18T19:41:24.773Z,13.70
2017-09-18T19:43:51.116Z,13.70
2017-09-18T19:46:17.477Z,13.50
2017-09-18T19:48:44.595Z,13.40
2017-09-18T19:51:11.339Z,13.30
2017-09-18T19:53:37.610Z,13.40
2017-09-18T19:56:04.758Z,13.80
2017-09-18T19:58:31.816Z,13.70
2017-09-18T20:00:58.188Z,13.60
2017-09-18T20:03:24.563Z,13.50
2017-09-18T20:05:51.731Z,13.10
2017-09-18T20:08:18.063Z,13.10
2017-09-18T20:10:44.386Z,13.00
2017-09-18T20:13:10.757Z,13.00
2017-09-18T20:15:37.066Z,13.10
2017-09-18T20:18:03.409Z,13.10
2017-09-18T20:20:29.733Z,13.30
2017-09-18T20:22:56.964Z,13.50
2017-09-18T20:25:23.993Z,13.60
2017-09-18T20:27:51.058Z,13.70
2017-09-18T20:30:17.333Z,13.60
2017-09-18T20:32:43.640Z,13.60
2017-09-18T20:35:09.968Z,13.70
2017-09-18T20:37:36.265Z,13.80
2017-09-18T20:40:02.599Z,13.50
2017-09-18T20:42:28.917Z,13.20
2017-09-18T20:44:55.956Z,13.60
2017-09-18T20:47:22.245Z,13.60
2017-09-18T20:49:48.562Z,13.80
2017-09-18T20:52:14.852Z,13.70
2017-09-18T20:54:41.907Z,13.50
2017-09-18T20:57:08.945Z,13.30
2017-09-18T20:59:35.979Z,13.00
2017-09-18T21:02:03.752Z,13.30
2017-09-18T21:04:31.536Z,13.10
2017-09-18T21:06:58.579Z,12.90
2017-09-18T21:09:25.638Z,12.70
2017-09-18T21:11:51.933Z,12.60
2017-09-18T21:14:18.998Z,12.60
2017-09-18T21:16:46.022Z,13.10
2017-09-18T21:19:12.324Z,13.10
2017-09-18T21:21:38.621Z,13.20
2017-09-18T21:24:04.921Z,13.20
2017-09-18T21:26:31.972Z,13.20
2017-09-18T21:28:59.018Z,13.30
2017-09-18T21:31:26.061Z,13.30
2017-09-18T21:33:53.085Z,13.20
2017-09-18T21:36:19.453Z,13.20
2017-09-18T21:38:45.871Z,12.80
2017-09-18T21:41:12.965Z,12.60
2017-09-18T21:43:40.079Z,12.80
2017-09-18T21:46:07.129Z,12.80
2017-09-18T21:48:33.479Z,12.70
2017-09-18T21:51:00.512Z,12.70
2017-09-18T21:53:27.528Z,12.40
2017-09-18T21:55:53.839Z,12.40
2017-09-18T21:58:20.118Z,12.70
2017-09-18T22:00:47.167Z,12.50
2017-09-18T22:03:13.457Z,12.50
2017-09-18T22:05:39.731Z,12.60
2017-09-18T22:08:06.781Z,12.70
2017-09-18T22:10:33.809Z,12.60
2017-09-18T22:13:00.863Z,12.80
2017-09-18T22:15:27.896Z,12.60
2017-09-18T22:17:54.946Z,12.50
2017-09-18T22:20:21.957Z,12.70
2017-09-18T22:22:48.259Z,12.70
2017-09-18T22:25:14.529Z,12.60
2017-09-18T22:27:40.868Z,12.60
2017-09-18T22:30:07.171Z,12.10
2017-09-18T22:32:33.482Z,12.30
2017-09-18T22:34:59.752Z,12.20
2017-09-18T22:37:26.090Z,12.10
2017-09-18T22:39:52.374Z,12.10
2017-09-18T22:42:18.670Z,12.00
2017-09-18T22:44:44.985Z,11.90
2017-09-18T22:47:11.268Z,11.90
2017-09-18T22:49:37.558Z,11.90
2017-09-18T22:52:04.584Z,11.80
2017-09-18T22:54:31.227Z,11.80
2017-09-18T22:56:58.983Z,12.00
2017-09-18T22:59:26.031Z,12.20
2017-09-18T23:01:52.504Z,12.10
2017-09-18T23:04:18.930Z,11.90
2017-09-18T23:06:45.238Z,12.10
2017-09-18T23:09:13.116Z,12.20
2017-09-18T23:11:40.185Z,11.90
2017-09-18T23:14:06.466Z,11.90
2017-09-18T23:16:32.832Z,12.20
2017-09-18T23:18:59.238Z,12.30
2017-09-18T23:21:25.560Z,12.00
2017-09-18T23:23:52.000Z,11.90
2017-09-18T23:26:18.435Z,12.00
2017-09-18T23:28:44.785Z,11.80
2017-09-18T23:31:11.818Z,11.60
2017-09-18T23:33:38.870Z,11.70
2017-09-18T23:36:05.183Z,11.70
2017-09-18T23:38:31.498Z,11.80
2017-09-18T23:40:57.792Z,11.70
2017-09-18T23:43:24.096Z,11.90
2017-09-18T23:45:51.150Z,11.80
2017-09-18T23:48:17.451Z,11.80
2017-09-18T23:50:43.734Z,11.80
2017-09-18T23:53:10.061Z,11.70
2017-09-18T23:55:36.341Z,11.80
2017-09-18T23:58:02.656Z,11.70
